Time;durP1;ratioP1;P1;durP2;ratioP2;P2;SDS_P1;SDS_P2;PMS_P1;PMS_P2;Temp;Humidity;BMP_temperature;BMP_pressure;BME280_temperature;BME280_humidity;BME280_pressure;Samples;Min_cycle;Max_cycle;Signal;HPM_P1;HPM_P2
2023/07/29 00:00:42;;;;;;;14.30;13.60;;;19.80;1.00;;;;;;5039404;28;20556;-45
2023/07/29 00:03:08;;;;;;;13.57;12.87;;;19.70;2.10;;;;;;5039426;28;20854;-42
2023/07/29 00:05:33;;;;;;;13.57;12.87;;;19.60;12.70;;;;;;5037703;28;20442;-42
2023/07/29 00:07:59;;;;;;;13.43;12.83;;;19.60;23.30;;;;;;5039353;28;20440;-46
2023/07/29 00:10:27;;;;;;;13.10;12.50;;;19.50;35.60;;;;;;5039191;28;20181;-46
2023/07/29 00:12:52;;;;;;;14.03;13.33;;;19.50;45.20;;;;;;5039517;28;20173;-44
2023/07/29 00:15:18;;;;;;;13.43;12.73;;;19.40;48.90;;;;;;5039999;28;20443;-44
2023/07/29 00:17:43;;;;;;;12.90;12.30;;;19.40;51.40;;;;;;5038559;28;20648;-46
2023/07/29 00:20:09;;;;;;;13.50;12.80;;;19.40;52.60;;;;;;5037446;28;20184;-42
2023/07/29 00:22:35;;;;;;;13.67;12.90;;;19.30;64.70;;;;;;5039164;28;20583;-43
2023/07/29 00:25:00;;;;;;;13.47;12.80;;;19.30;67.60;;;;;;5039806;28;20238;-45
2023/07/29 00:27:26;;;;;;;14.10;13.30;;;19.20;79.30;;;;;;5039494;28;20178;-42
2023/07/29 00:29:52;;;;;;;13.90;13.10;;;19.20;95.70;;;;;;5039067;28;20658;-46
2023/07/29 00:32:18;;;;;;;12.90;12.30;;;19.10;99.90;;;;;;5038862;28;20234;-45
2023/07/29 00:34:43;;;;;;;13.00;12.30;;;19.10;99.90;;;;;;5039486;28;20522;-43
2023/07/29 00:37:10;;;;;;;13.23;12.53;;;19.10;99.90;;;;;;5019956;28;20259;-46
2023/07/29 00:39:37;;;;;;;13.73;12.93;;;19.10;99.90;;;;;;5038956;28;20185;-42
2023/07/29 00:42:03;;;;;;;13.10;12.50;;;19.10;99.90;;;;;;5039280;28;20420;-45
2023/07/29 00:44:31;;;;;;;13.50;12.80;;;19.10;99.90;;;;;;5038874;28;20447;-42
2023/07/29 00:46:58;;;;;;;12.83;12.13;;;19.10;99.90;;;;;;5039110;28;20447;-47
2023/07/29 00:49:24;;;;;;;13.67;12.97;;;19.10;99.90;;;;;;5039075;28;20443;-42
2023/07/29 00:51:50;;;;;;;13.43;12.73;;;19.10;99.90;;;;;;5039340;28;20584;-44
2023/07/29 00:54:16;;;;;;;12.43;11.80;;;19.10;99.90;;;;;;5041809;28;20644;-47
2023/07/29 00:56:42;;;;;;;13.03;12.17;;;19.10;99.90;;;;;;5042786;28;20506;-51
2023/07/29 00:59:09;;;;;;;13.10;12.40;;;19.00;99.90;;;;;;5017555;28;20883;-52
2023/07/29 01:01:35;;;;;;;13.30;12.60;;;19.00;99.90;;;;;;5042018;28;20436;-50
2023/07/29 01:04:00;;;;;;;13.53;12.83;;;19.00;99.90;;;;;;5041841;28;20474;-53
2023/07/29 01:06:45;;;;;;;13.70;13.00;;;19.00;99.90;;;;;;5043321;28;20840;-46
2023/07/29 01:09:37;;;;;;;12.70;12.00;;;19.00;99.90;;;;;;5043129;28;20243;-51
2023/07/29 01:12:22;;;;;;;12.87;12.17;;;18.90;99.90;;;;;;5042257;28;20424;-49
2023/07/29 01:15:04;;;;;;;13.07;12.47;;;18.90;99.90;;;;;;5041841;28;20432;-47
2023/07/29 01:17:36;;;;;;;13.50;12.80;;;18.80;99.90;;;;;;5043053;28;20546;-48
2023/07/29 01:20:17;;;;;;;12.60;11.70;;;18.80;99.90;;;;;;5043333;28;20507;-49
2023/07/29 01:22:43;;;;;;;13.07;12.37;;;18.80;99.90;;;;;;5042811;28;20412;-47
2023/07/29 01:25:09;;;;;;;12.93;12.33;;;18.80;99.90;;;;;;5040972;28;20464;-49
2023/07/29 01:27:35;;;;;;;13.50;12.57;;;18.70;99.90;;;;;;5042643;28;20440;-50
2023/07/29 01:30:02;;;;;;;13.00;12.30;;;18.70;99.90;;;;;;5042776;28;20217;-49
2023/07/29 01:32:35;;;;;;;13.53;12.83;;;18.70;99.90;;;;;;5042143;28;20197;-48
2023/07/29 01:35:25;;;;;;;13.50;12.70;;;18.70;99.90;;;;;;5041761;28;20868;-48
2023/07/29 01:38:09;;;;;;;12.43;11.73;;;18.60;99.90;;;;;;5042296;28;21014;-48
2023/07/29 01:40:35;;;;;;;12.90;12.20;;;18.60;99.90;;;;;;5041278;28;20432;-47
2023/07/29 01:43:02;;;;;;;12.60;11.80;;;18.60;99.90;;;;;;5042534;28;20419;-47
2023/07/29 01:45:31;;;;;;;13.10;12.23;;;18.50;99.90;;;;;;5023889;28;21385;-49
2023/07/29 01:47:57;;;;;;;12.70;12.10;;;18.50;99.90;;;;;;5041919;28;20451;-45
2023/07/29 01:50:22;;;;;;;13.70;12.90;;;18.40;99.90;;;;;;5041837;28;20542;-46
2023/07/29 01:52:48;;;;;;;12.70;12.00;;;18.40;99.90;;;;;;5042098;28;20190;-49
2023/07/29 01:55:13;;;;;;;13.43;12.73;;;18.40;99.90;;;;;;5042048;28;20260;-45
2023/07/29 01:57:39;;;;;;;12.50;11.80;;;18.40;99.90;;;;;;5042285;28;20263;-48
2023/07/29 02:00:05;;;;;;;12.60;11.90;;;18.30;99.90;;;;;;5039489;28;20512;-50
2023/07/29 02:02:31;;;;;;;12.27;11.47;;;18.30;99.90;;;;;;5042247;28;20260;-49
2023/07/29 02:04:56;;;;;;;13.23;12.53;;;18.30;99.90;;;;;;5041073;28;20961;-46
2023/07/29 02:07:22;;;;;;;13.10;12.30;;;18.30;99.90;;;;;;5041608;28;20683;-51
2023/07/29 02:09:48;;;;;;;12.80;12.10;;;18.20;99.90;;;;;;5041672;28;20194;-48
2023/07/29 02:12:13;;;;;;;12.40;11.60;;;18.20;99.90;;;;;;5041946;28;20723;-48
2023/07/29 02:14:39;;;;;;;12.20;11.50;;;18.10;99.90;;;;;;5041034;28;20194;-48
2023/07/29 02:17:04;;;;;;;12.10;11.40;;;18.00;99.90;;;;;;5041566;28;20213;-49
2023/07/29 02:19:30;;;;;;;12.87;12.17;;;18.00;99.90;;;;;;5041281;28;20173;-47
2023/07/29 02:21:56;;;;;;;12.70;11.90;;;18.00;99.90;;;;;;5041859;28;20185;-52
2023/07/29 02:24:21;;;;;;;12.77;11.97;;;18.00;99.90;;;;;;5040744;28;20234;-52
2023/07/29 02:26:47;;;;;;;12.60;11.87;;;18.00;99.90;;;;;;5023710;28;20197;-50
2023/07/29 02:29:13;;;;;;;12.50;11.80;;;18.00;99.90;;;;;;5040647;28;20439;-46
2023/07/29 02:31:39;;;;;;;12.27;11.57;;;17.90;99.90;;;;;;5041537;28;20662;-46
2023/07/29 02:34:04;;;;;;;12.70;12.00;;;17.90;99.90;;;;;;5041619;28;20357;-53
2023/07/29 02:36:30;;;;;;;12.80;12.10;;;17.90;99.90;;;;;;5041099;28;20214;-50
2023/07/29 02:38:56;;;;;;;12.53;11.80;;;17.90;99.90;;;;;;5041590;28;20177;-50
2023/07/29 02:41:22;;;;;;;12.30;11.60;;;17.90;99.90;;;;;;5041682;28;20174;-48
2023/07/29 02:43:50;;;;;;;13.00;12.30;;;18.00;99.90;;;;;;5041410;28;20440;-47
2023/07/29 02:46:17;;;;;;;13.03;12.23;;;17.90;99.90;;;;;;5039728;28;20534;-48
2023/07/29 02:48:43;;;;;;;12.50;11.80;;;18.00;99.90;;;;;;5023164;28;20428;-49
2023/07/29 02:51:09;;;;;;;12.80;12.07;;;18.00;99.90;;;;;;5041395;28;20937;-49
2023/07/29 02:53:36;;;;;;;12.40;11.70;;;18.00;99.90;;;;;;5023418;28;20416;-50
2023/07/29 02:56:03;;;;;;;12.43;11.73;;;18.00;99.90;;;;;;5037372;28;20205;-49
2023/07/29 02:58:29;;;;;;;12.50;11.90;;;17.90;99.90;;;;;;5041247;28;20803;-48
2023/07/29 03:01:01;;;;;;;12.00;11.30;;;18.00;99.90;;;;;;5041342;28;20420;-44
2023/07/29 03:03:27;;;;;;;12.53;11.83;;;18.00;99.90;;;;;;5041318;28;20584;-49
2023/07/29 03:06:04;;;;;;;12.40;11.70;;;17.90;99.90;;;;;;5039323;28;20436;-46
2023/07/29 03:08:30;;;;;;;12.23;11.53;;;17.90;99.90;;;;;;5040915;28;20178;-48
2023/07/29 03:10:57;;;;;;;11.80;11.10;;;18.00;99.90;;;;;;5040537;28;20443;-48
2023/07/29 03:13:22;;;;;;;12.90;12.20;;;18.00;99.90;;;;;;5040776;28;20197;-45
2023/07/29 03:15:48;;;;;;;12.80;12.10;;;18.00;99.90;;;;;;5040872;28;20974;-51
2023/07/29 03:18:14;;;;;;;12.13;11.43;;;18.10;99.90;;;;;;5039761;28;20182;-48
2023/07/29 03:20:40;;;;;;;12.00;11.40;;;18.10;99.90;;;;;;5040305;28;20788;-51
2023/07/29 03:23:06;;;;;;;12.30;11.70;;;18.10;99.90;;;;;;5039383;28;20427;-50
2023/07/29 03:25:32;;;;;;;12.50;11.80;;;18.20;99.90;;;;;;5040137;28;20255;-50
2023/07/29 03:27:57;;;;;;;12.40;11.80;;;18.20;99.90;;;;;;5040366;28;20194;-53
2023/07/29 03:30:23;;;;;;;12.93;12.10;;;18.20;99.90;;;;;;5039213;28;20182;-46
2023/07/29 03:32:49;;;;;;;11.10;10.60;;;18.30;99.90;;;;;;5040347;28;20177;-49
2023/07/29 03:35:15;;;;;;;13.13;12.33;;;18.40;99.90;;;;;;5040141;28;20268;-46
2023/07/29 03:37:41;;;;;;;12.30;11.70;;;18.50;99.90;;;;;;5022291;28;20503;-49
2023/07/29 03:40:09;;;;;;;12.33;11.73;;;18.50;99.90;;;;;;5020507;28;20773;-47
2023/07/29 03:42:35;;;;;;;12.00;11.40;;;18.60;99.90;;;;;;5040319;28;20185;-46
2023/07/29 03:45:00;;;;;;;12.40;11.70;;;18.60;99.90;;;;;;5040449;28;20428;-48
2023/07/29 03:47:26;;;;;;;11.80;11.20;;;18.70;99.90;;;;;;5040262;28;20920;-49
2023/07/29 03:49:52;;;;;;;12.60;11.53;;;18.70;99.90;;;;;;5038959;28;20185;-48
2023/07/29 03:52:17;;;;;;;12.50;11.80;;;18.70;99.90;;;;;;5038949;28;20440;-51
2023/07/29 03:54:43;;;;;;;13.13;12.37;;;18.70;99.90;;;;;;5040286;28;20182;-52
2023/07/29 03:57:09;;;;;;;13.40;12.60;;;18.70;99.90;;;;;;5022133;28;20202;-51
2023/07/29 03:59:34;;;;;;;12.27;11.67;;;18.70;99.90;;;;;;5039147;28;20248;-46
2023/07/29 04:02:00;;;;;;;12.50;11.90;;;18.70;99.90;;;;;;5039751;28;20208;-49
2023/07/29 04:04:26;;;;;;;12.00;11.40;;;18.70;99.90;;;;;;5039640;28;20186;-49
2023/07/29 04:06:51;;;;;;;12.13;11.53;;;18.70;99.90;;;;;;5040257;28;20194;-51
2023/07/29 04:09:17;;;;;;;12.60;11.90;;;18.70;99.90;;;;;;5037725;28;21202;-48
2023/07/29 04:11:43;;;;;;;12.40;11.80;;;18.80;99.90;;;;;;5022169;28;20521;-50
2023/07/29 04:14:09;;;;;;;12.07;11.47;;;18.90;99.90;;;;;;5039768;28;20417;-49
2023/07/29 04:16:34;;;;;;;12.20;11.63;;;18.90;99.90;;;;;;5039947;28;20201;-45
2023/07/29 04:19:00;;;;;;;12.10;11.50;;;19.00;99.90;;;;;;5038038;28;21186;-47
2023/07/29 04:21:25;;;;;;;12.93;12.23;;;19.10;99.90;;;;;;5038947;28;20200;-51
2023/07/29 04:23:51;;;;;;;12.60;12.00;;;19.20;99.90;;;;;;5037349;28;20248;-48
2023/07/29 04:26:16;;;;;;;12.20;11.60;;;19.20;99.90;;;;;;5039433;28;20185;-48
2023/07/29 04:28:43;;;;;;;11.63;11.13;;;19.30;99.90;;;;;;5036379;28;20182;-52
2023/07/29 04:31:09;;;;;;;11.93;11.33;;;19.40;99.90;;;;;;5039392;28;20189;-48
2023/07/29 04:33:35;;;;;;;12.60;11.97;;;19.50;99.90;;;;;;5039274;28;20786;-48
2023/07/29 04:36:00;;;;;;;12.30;11.70;;;19.60;99.90;;;;;;5039308;28;20212;-47
2023/07/29 04:38:32;;;;;;;12.67;12.07;;;19.70;99.90;;;;;;5038786;28;20644;-47
2023/07/29 04:41:01;;;;;;;12.30;11.70;;;19.70;99.90;;;;;;5039338;28;20656;-44
2023/07/29 04:43:35;;;;;;;13.30;12.70;;;19.80;99.90;;;;;;5039135;28;20407;-45
2023/07/29 04:46:01;;;;;;;12.73;12.13;;;19.90;99.90;;;;;;5039144;28;20443;-43
2023/07/29 04:48:26;;;;;;;12.70;12.10;;;19.90;99.90;;;;;;5038539;28;20950;-45
2023/07/29 04:50:52;;;;;;;12.80;12.20;;;19.90;99.90;;;;;;5039233;28;20198;-50
2023/07/29 04:53:18;;;;;;;12.00;11.50;;;20.00;99.90;;;;;;5038591;28;20232;-47
2023/07/29 04:55:43;;;;;;;12.70;12.07;;;20.00;99.90;;;;;;5037567;28;20273;-45
2023/07/29 04:58:10;;;;;;;12.80;12.20;;;20.10;99.90;;;;;;5036675;28;20185;-48
2023/07/29 05:00:36;;;;;;;12.50;11.90;;;20.10;99.90;;;;;;5035979;28;20247;-47
2023/07/29 05:03:01;;;;;;;12.30;11.60;;;20.20;99.90;;;;;;5037573;28;20432;-41
2023/07/29 05:05:27;;;;;;;12.13;11.53;;;20.10;98.50;;;;;;5034945;28;20903;-44
2023/07/29 05:07:53;;;;;;;12.20;11.70;;;20.20;98.30;;;;;;5037797;28;20221;-49
2023/07/29 05:10:19;;;;;;;11.47;10.97;;;20.30;91.20;;;;;;5038003;28;20178;-47
2023/07/29 05:12:44;;;;;;;12.50;11.90;;;20.30;99.90;;;;;;5039096;28;20198;-43
2023/07/29 05:15:10;;;;;;;11.73;11.23;;;20.50;96.20;;;;;;5038885;28;20436;-44
2023/07/29 05:17:36;;;;;;;12.30;11.70;;;20.50;92.70;;;;;;5039054;28;20641;-43
2023/07/29 05:20:02;;;;;;;12.00;11.40;;;20.60;68.00;;;;;;5038079;28;20209;-44
2023/07/29 05:22:27;;;;;;;11.30;10.80;;;20.60;57.80;;;;;;5038552;28;20190;-46
2023/07/29 05:24:53;;;;;;;12.10;11.47;;;20.70;59.30;;;;;;5037770;28;20537;-45
2023/07/29 05:27:19;;;;;;;12.20;11.63;;;20.80;51.70;;;;;;5039037;28;20200;-46
2023/07/29 05:29:44;;;;;;;12.20;11.67;;;20.80;44.50;;;;;;5021024;28;20912;-41
2023/07/29 05:32:10;;;;;;;11.70;11.20;;;20.80;46.90;;;;;;5039094;28;20194;-43
2023/07/29 05:34:36;;;;;;;11.83;11.33;;;20.90;48.90;;;;;;5036946;28;20229;-42
2023/07/29 05:37:01;;;;;;;12.00;11.30;;;21.00;49.70;;;;;;5038659;28;20266;-44
2023/07/29 05:39:27;;;;;;;11.70;11.10;;;21.10;32.00;;;;;;5038373;28;20213;-44
2023/07/29 05:41:52;;;;;;;12.27;11.67;;;21.30;31.80;;;;;;5042812;28;20190;-44
2023/07/29 05:44:18;;;;;;;11.30;10.80;;;21.50;28.80;;;;;;5041247;28;20244;-45
2023/07/29 05:46:44;;;;;;;12.00;11.37;;;21.60;4.50;;;;;;5042360;28;20201;-44
2023/07/29 05:49:09;;;;;;;11.57;10.97;;;21.80;1.00;;;;;;5042650;28;20356;-44
2023/07/29 05:51:35;;;;;;;11.67;11.17;;;21.90;1.00;;;;;;5023393;28;20239;-44
2023/07/29 05:54:00;;;;;;;12.93;12.23;;;22.00;1.00;;;;;;5041298;28;20483;-45
2023/07/29 05:56:26;;;;;;;11.57;11.07;;;22.10;1.00;;;;;;5024735;28;20205;-42
2023/07/29 05:58:52;;;;;;;11.43;10.93;;;22.20;1.00;;;;;;5042590;28;20209;-42
2023/07/29 06:01:21;;;;;;;11.20;10.70;;;22.30;1.00;;;;;;5040587;28;20186;-43
2023/07/29 06:03:46;;;;;;;11.80;11.30;;;22.50;1.00;;;;;;5042421;28;20181;-43
2023/07/29 06:06:12;;;;;;;11.50;11.00;;;22.60;1.00;;;;;;5017222;28;20954;-43
2023/07/29 06:08:38;;;;;;;11.97;11.20;;;22.60;1.00;;;;;;5041740;28;20212;-44
2023/07/29 06:11:06;;;;;;;11.40;10.90;;;22.60;1.00;;;;;;5042316;28;20217;-46
2023/07/29 06:13:32;;;;;;;11.23;10.73;;;22.70;1.00;;;;;;5039679;28;20594;-45
2023/07/29 06:15:57;;;;;;;12.00;11.30;;;22.60;1.00;;;;;;5039060;28;20979;-43
2023/07/29 06:18:23;;;;;;;11.17;10.67;;;22.60;1.00;;;;;;5040728;28;20452;-44
2023/07/29 06:20:48;;;;;;;11.03;10.43;;;22.50;1.00;;;;;;5039782;28;20848;-42
2023/07/29 06:23:14;;;;;;;11.80;11.27;;;22.50;1.00;;;;;;5041630;28;20220;-44
2023/07/29 06:25:40;;;;;;;12.07;11.47;;;22.50;1.00;;;;;;5040408;28;20194;-46
2023/07/29 06:28:05;;;;;;;11.03;10.53;;;22.60;1.00;;;;;;5040077;28;20190;-42
2023/07/29 06:30:31;;;;;;;11.77;11.27;;;22.60;1.00;;;;;;5042234;28;20182;-44
2023/07/29 06:32:56;;;;;;;11.33;10.83;;;22.80;1.00;;;;;;5041669;28;20381;-46
2023/07/29 06:35:22;;;;;;;12.20;11.70;;;22.90;1.00;;;;;;5039080;28;20260;-46
2023/07/29 06:37:48;;;;;;;10.70;10.20;;;23.00;1.00;;;;;;5038436;28;20998;-42
2023/07/29 06:40:13;;;;;;;11.77;11.17;;;23.10;1.00;;;;;;5038871;28;20251;-45
2023/07/29 06:42:39;;;;;;;10.67;10.17;;;23.10;1.00;;;;;;5039616;28;20184;-46
2023/07/29 06:45:05;;;;;;;11.80;11.20;;;23.10;1.00;;;;;;5040920;28;20181;-45
2023/07/29 06:47:32;;;;;;;11.50;11.00;;;23.20;1.00;;;;;;5040656;28;20200;-44
2023/07/29 06:49:57;;;;;;;11.50;10.90;;;23.40;1.00;;;;;;5055081;28;20440;-43
2023/07/29 06:52:23;;;;;;;11.13;10.73;;;23.60;99.90;;;;;;5040865;28;20189;-41
2023/07/29 06:54:48;;;;;;;10.73;10.23;;;23.70;99.90;;;;;;5039948;28;20198;-43
2023/07/29 06:57:14;;;;;;;11.20;10.70;;;23.80;99.90;;;;;;5041232;28;20246;-42
2023/07/29 06:59:40;;;;;;;10.57;10.17;;;23.90;99.90;;;;;;5039176;28;20557;-42
2023/07/29 07:02:07;;;;;;;9.93;9.53;;;24.00;99.90;;;;;;5035602;28;20218;-42
2023/07/29 07:04:32;;;;;;;10.60;10.20;;;24.20;99.90;;;;;;5037541;28;20229;-42
2023/07/29 07:06:58;;;;;;;10.30;9.90;;;24.00;99.90;;;;;;5039604;28;20523;-42
2023/07/29 07:09:23;;;;;;;10.70;10.20;;;24.20;99.90;;;;;;5038681;28;20282;-42
2023/07/29 07:11:49;;;;;;;10.80;10.30;;;24.30;99.90;;;;;;5040083;28;20189;-45
2023/07/29 07:14:15;;;;;;;10.57;10.17;;;24.40;99.90;;;;;;5041263;28;20224;-43
2023/07/29 07:16:40;;;;;;;10.20;9.80;;;24.10;99.90;;;;;;5040064;28;20213;-41
2023/07/29 07:19:06;;;;;;;10.60;10.10;;;24.00;99.90;;;;;;5040014;28;20288;-41
2023/07/29 07:21:34;;;;;;;9.90;9.50;;;24.10;99.90;;;;;;5039633;28;20189;-43
2023/07/29 07:24:00;;;;;;;10.10;9.60;;;24.10;99.90;;;;;;5040031;28;20782;-45
2023/07/29 07:26:26;;;;;;;10.03;9.63;;;24.30;99.90;;;;;;5022748;28;20536;-44
2023/07/29 07:28:51;;;;;;;10.27;9.87;;;24.30;99.90;;;;;;5023298;28;20228;-45
2023/07/29 07:31:17;;;;;;;9.87;9.47;;;24.60;99.90;;;;;;5040423;28;20786;-41
2023/07/29 07:33:43;;;;;;;9.90;9.50;;;24.70;99.90;;;;;;5040232;28;20186;-44
2023/07/29 07:36:08;;;;;;;9.90;9.50;;;24.70;1.00;;;;;;5040309;28;20209;-43
2023/07/29 07:38:34;;;;;;;10.63;10.03;;;24.70;1.00;;;;;;5040198;28;20251;-44
2023/07/29 07:41:00;;;;;;;10.40;10.00;;;24.70;1.00;;;;;;5040792;28;20201;-46
2023/07/29 07:43:25;;;;;;;10.53;10.13;;;24.90;1.00;;;;;;5040443;28;20197;-45
2023/07/29 07:45:57;;;;;;;10.20;9.80;;;25.10;1.00;;;;;;5039606;28;20215;-41
2023/07/29 07:48:22;;;;;;;9.87;9.37;;;25.20;1.00;;;;;;5039973;28;20652;-43
2023/07/29 07:50:48;;;;;;;9.83;9.43;;;25.30;1.00;;;;;;5039547;28;20428;-44
2023/07/29 07:53:13;;;;;;;10.27;9.87;;;25.40;1.00;;;;;;5039301;28;20619;-46
2023/07/29 07:55:39;;;;;;;9.03;8.67;;;25.50;1.00;;;;;;5038621;28;20192;-45
2023/07/29 07:58:05;;;;;;;10.03;9.63;;;25.60;1.00;;;;;;5038714;28;20671;-47
2023/07/29 08:00:30;;;;;;;7.93;7.63;;;25.40;1.00;;;;;;5039286;28;20541;-42
2023/07/29 08:02:56;;;;;;;9.20;8.83;;;25.70;1.00;;;;;;5037699;28;20189;-45
2023/07/29 08:05:21;;;;;;;9.70;9.30;;;25.70;1.00;;;;;;5039144;28;20537;-47
2023/07/29 08:07:47;;;;;;;10.30;9.90;;;25.70;1.00;;;;;;5039048;28;20614;-46
2023/07/29 08:10:13;;;;;;;10.43;10.03;;;25.40;1.00;;;;;;5012418;28;20224;-46
2023/07/29 08:12:38;;;;;;;9.50;9.10;;;25.40;1.00;;;;;;5039401;28;20623;-44
2023/07/29 08:15:05;;;;;;;10.20;9.80;;;25.30;1.00;;;;;;5038764;28;20230;-42
2023/07/29 08:17:30;;;;;;;10.17;9.77;;;25.10;1.00;;;;;;5037920;28;20248;-45
2023/07/29 08:19:56;;;;;;;10.03;9.63;;;25.10;1.00;;;;;;5039446;28;21001;-44
2023/07/29 08:22:21;;;;;;;10.23;9.83;;;25.20;1.00;;;;;;5038876;28;20185;-45
2023/07/29 08:24:47;;;;;;;10.13;9.63;;;25.30;1.00;;;;;;5038224;28;20372;-45
2023/07/29 08:27:12;;;;;;;9.80;9.40;;;25.50;1.00;;;;;;5039299;28;20240;-42
2023/07/29 08:29:39;;;;;;;9.50;9.10;;;25.60;1.00;;;;;;5035419;28;20193;-48
2023/07/29 08:32:04;;;;;;;10.10;9.70;;;25.70;1.00;;;;;;5035803;28;20246;-47
2023/07/29 08:34:30;;;;;;;9.30;8.90;;;25.50;99.90;;;;;;5035692;28;20686;-49
2023/07/29 08:36:55;;;;;;;10.07;9.67;;;25.40;99.90;;;;;;5033898;28;20216;-47
2023/07/29 08:39:21;;;;;;;9.33;9.03;;;25.10;99.90;;;;;;5038123;28;20794;-44
2023/07/29 08:42:00;;;;;;;10.20;9.80;;;25.00;99.90;;;;;;5037506;28;20212;-43
2023/07/29 08:44:35;;;;;;;9.67;9.27;;;24.80;99.90;;;;;;5038239;28;20448;-44
2023/07/29 08:47:01;;;;;;;9.70;9.30;;;24.90;99.90;;;;;;5037648;28;20432;-44
2023/07/29 08:49:28;;;;;;;9.77;9.37;;;25.10;1.00;;;;;;5039358;28;20497;-43
2023/07/29 08:51:54;;;;;;;10.27;9.87;;;25.40;99.90;;;;;;5037994;28;21728;-42
2023/07/29 08:54:20;;;;;;;10.00;9.60;;;25.60;99.90;;;;;;5054678;28;20498;-44
2023/07/29 08:56:46;;;;;;;9.03;8.70;;;25.60;99.90;;;;;;5038258;28;20463;-45
2023/07/29 08:59:13;;;;;;;9.03;8.73;;;25.70;99.90;;;;;;5037835;28;20197;-44
2023/07/29 09:01:39;;;;;;;9.93;9.53;;;26.00;99.90;;;;;;5051041;28;20440;-46
2023/07/29 09:04:05;;;;;;;9.20;8.90;;;26.10;99.90;;;;;;5037962;28;20436;-42
2023/07/29 09:06:31;;;;;;;9.90;9.50;;;26.30;99.90;;;;;;5035268;28;20178;-46
2023/07/29 09:08:58;;;;;;;9.80;9.40;;;26.20;99.90;;;;;;5037337;28;21599;-48
2023/07/29 09:11:24;;;;;;;9.73;9.33;;;26.20;99.90;;;;;;5039066;28;20904;-42
2023/07/29 09:13:50;;;;;;;9.17;8.87;;;26.10;99.90;;;;;;5038001;28;20466;-45
2023/07/29 09:16:16;;;;;;;9.77;9.37;;;26.00;99.90;;;;;;5042347;28;20840;-43
2023/07/29 09:18:42;;;;;;;10.33;9.83;;;25.90;99.90;;;;;;5040515;28;20651;-45
2023/07/29 09:21:08;;;;;;;8.60;8.20;;;25.90;99.90;;;;;;5040701;28;20298;-41
2023/07/29 09:23:44;;;;;;;9.57;9.20;;;25.90;99.90;;;;;;5042687;28;20474;-42
2023/07/29 09:26:10;;;;;;;8.97;8.67;;;26.10;99.90;;;;;;5040843;28;20444;-47
2023/07/29 09:28:38;;;;;;;10.13;9.73;;;26.20;99.90;;;;;;5038660;28;20447;-44
2023/07/29 09:31:04;;;;;;;9.60;9.20;;;26.30;99.90;;;;;;5041440;28;20439;-44
2023/07/29 09:33:35;;;;;;;9.60;9.20;;;26.50;99.90;;;;;;5040495;28;20440;-44
2023/07/29 09:36:01;;;;;;;10.30;9.90;;;26.60;99.90;;;;;;5040192;28;20652;-45
2023/07/29 09:38:27;;;;;;;10.23;9.83;;;26.70;99.90;;;;;;5038847;28;20442;-42
2023/07/29 09:40:56;;;;;;;10.10;9.60;;;26.70;99.90;;;;;;5041337;28;20193;-43
2023/07/29 09:43:26;;;;;;;10.23;9.83;;;26.70;99.90;;;;;;5041612;28;20428;-43
2023/07/29 09:45:52;;;;;;;10.30;9.90;;;26.80;99.90;;;;;;5017363;28;20482;-43
2023/07/29 09:48:22;;;;;;;9.73;9.33;;;26.80;99.90;;;;;;5037488;28;20944;-47
2023/07/29 09:50:48;;;;;;;9.47;9.07;;;26.70;99.90;;;;;;5038283;28;20182;-45
2023/07/29 09:53:14;;;;;;;10.13;9.73;;;26.70;99.90;;;;;;5040707;28;20438;-45
2023/07/29 09:55:45;;;;;;;10.53;10.13;;;26.80;99.90;;;;;;5054966;28;20190;-48
2023/07/29 09:58:11;;;;;;;9.37;8.97;;;26.90;99.90;;;;;;5037640;28;20925;-47
2023/07/29 10:00:38;;;;;;;9.23;8.93;;;26.90;99.90;;;;;;5040238;28;20434;-45
2023/07/29 10:03:05;;;;;;;9.80;9.30;;;26.90;99.90;;;;;;5034897;28;20247;-45
2023/07/29 10:05:32;;;;;;;9.50;9.10;;;26.70;99.90;;;;;;5037308;28;20442;-47
2023/07/29 10:07:57;;;;;;;10.10;9.70;;;26.80;99.90;;;;;;5039280;28;20445;-45
2023/07/29 10:10:24;;;;;;;10.07;9.67;;;26.80;99.90;;;;;;5038343;28;20950;-45
2023/07/29 10:12:50;;;;;;;9.70;9.30;;;26.20;99.90;;;;;;5039152;28;20197;-45
2023/07/29 10:15:15;;;;;;;10.70;10.20;;;25.30;1.00;;;;;;5039833;28;21469;-45
2023/07/29 10:17:41;;;;;;;12.37;11.87;;;24.50;12.70;;;;;;5041669;28;20479;-46
2023/07/29 10:20:10;;;;;;;13.13;12.53;;;23.70;1.00;;;;;;5040327;28;20186;-44
2023/07/29 10:22:39;;;;;;;13.67;12.90;;;23.10;99.90;;;;;;5039436;28;21210;-47
2023/07/29 10:25:08;;;;;;;13.63;13.03;;;22.60;99.90;;;;;;5041360;28;20472;-44
2023/07/29 10:28:02;;;;;;;14.63;13.90;;;22.30;1.00;;;;;;5039878;28;20720;-46
2023/07/29 10:30:28;;;;;;;13.87;13.27;;;22.20;1.00;;;;;;5041106;28;20440;-44
2023/07/29 10:32:58;;;;;;;13.50;12.87;;;22.30;1.00;;;;;;5040360;28;20426;-45
2023/07/29 10:35:25;;;;;;;13.87;13.27;;;22.40;1.00;;;;;;5038639;28;20439;-50
2023/07/29 10:37:53;;;;;;;13.40;12.80;;;22.60;1.00;;;;;;5040534;28;20489;-40
2023/07/29 10:40:19;;;;;;;12.53;12.03;;;23.10;1.00;;;;;;5023687;28;21041;-41
2023/07/29 10:43:26;;;;;;;11.37;10.87;;;23.50;1.00;;;;;;5041638;28;20928;-41
2023/07/29 10:45:52;;;;;;;10.93;10.50;;;23.70;1.00;;;;;;4979128;28;20466;-43
2023/07/29 10:48:32;;;;;;;10.80;10.40;;;24.00;49.50;;;;;;5029865;28;20782;-49
2023/07/29 10:51:37;;;;;;;10.60;10.20;;;24.20;1.00;;;;;;5041442;28;20416;-43
2023/07/29 10:54:03;;;;;;;10.00;9.60;;;24.50;99.90;;;;;;5039728;28;20463;-44
2023/07/29 10:56:33;;;;;;;10.00;9.60;;;24.90;99.90;;;;;;5038044;28;20541;-46
2023/07/29 10:59:11;;;;;;;10.20;9.80;;;25.10;99.90;;;;;;5041730;28;20416;-44
2023/07/29 11:01:39;;;;;;;10.30;9.90;;;25.40;99.90;;;;;;5041454;28;20423;-42
2023/07/29 11:04:20;;;;;;;10.93;10.43;;;25.60;1.00;;;;;;5040201;28;20436;-45
2023/07/29 11:07:22;;;;;;;10.87;10.37;;;25.70;99.90;;;;;;5041202;28;20779;-44
2023/07/29 11:09:48;;;;;;;11.43;10.93;;;25.90;99.90;;;;;;5039107;28;20468;-47
2023/07/29 11:12:36;;;;;;;10.33;9.93;;;26.00;99.90;;;;;;5039464;28;20527;-45
2023/07/29 11:15:10;;;;;;;10.20;9.80;;;25.60;1.00;;;;;;5041026;28;20644;-42
2023/07/29 11:17:39;;;;;;;9.60;9.20;;;25.50;1.00;;;;;;5040219;28;20478;-47
2023/07/29 11:20:07;;;;;;;9.87;9.47;;;25.40;1.00;;;;;;5039426;28;20432;-45
2023/07/29 11:22:33;;;;;;;9.70;9.30;;;25.20;1.00;;;;;;5040459;28;20439;-45
2023/07/29 11:24:58;;;;;;;9.50;9.10;;;25.10;1.00;;;;;;5040384;28;20456;-48
2023/07/29 11:27:24;;;;;;;9.87;9.37;;;24.80;1.00;;;;;;5040377;28;20243;-43
2023/07/29 11:29:50;;;;;;;9.80;9.40;;;24.70;1.00;;;;;;5022708;28;20185;-42
2023/07/29 11:32:16;;;;;;;9.53;9.13;;;24.70;1.00;;;;;;5040354;28;20873;-44
2023/07/29 11:34:42;;;;;;;9.27;8.93;;;24.90;1.00;;;;;;5039563;28;20189;-45
2023/07/29 11:37:11;;;;;;;9.23;8.93;;;24.90;1.00;;;;;;5038631;28;20467;-43
2023/07/29 11:39:45;;;;;;;9.40;9.00;;;24.90;1.00;;;;;;5038826;28;20488;-43
2023/07/29 11:42:11;;;;;;;9.60;9.20;;;24.70;1.00;;;;;;5036179;28;20436;-46
2023/07/29 11:44:38;;;;;;;9.40;9.00;;;24.80;1.00;;;;;;5040332;28;20455;-44
2023/07/29 11:47:10;;;;;;;9.37;8.87;;;24.90;1.00;;;;;;5040191;28;20473;-42
2023/07/29 11:49:37;;;;;;;8.00;7.70;;;25.30;1.00;;;;;;5038652;28;20520;-44
2023/07/29 11:52:05;;;;;;;9.20;8.90;;;25.60;1.00;;;;;;5039492;28;20432;-45
2023/07/29 11:54:31;;;;;;;9.97;9.57;;;25.50;1.00;;;;;;5038882;28;20446;-43
2023/07/29 11:56:57;;;;;;;10.30;9.80;;;25.60;1.00;;;;;;5039371;28;20460;-42
2023/07/29 11:59:23;;;;;;;9.20;8.80;;;25.70;1.00;;;;;;5040118;28;20190;-44
2023/07/29 12:01:49;;;;;;;9.47;8.87;;;25.60;1.00;;;;;;5039799;28;20213;-46
2023/07/29 12:04:15;;;;;;;9.73;9.23;;;25.70;1.00;;;;;;5038968;28;20519;-47
2023/07/29 12:06:41;;;;;;;8.80;8.50;;;25.60;1.00;;;;;;5018360;28;20320;-40
2023/07/29 12:09:08;;;;;;;9.13;8.73;;;25.60;1.00;;;;;;5039873;28;20431;-45
2023/07/29 12:11:34;;;;;;;9.53;9.03;;;25.70;1.00;;;;;;5039934;28;20192;-48
2023/07/29 12:14:00;;;;;;;9.57;9.17;;;25.70;1.00;;;;;;5038003;28;20432;-45
2023/07/29 12:16:26;;;;;;;9.77;9.27;;;25.90;1.00;;;;;;5040039;28;20779;-43
2023/07/29 12:18:52;;;;;;;9.63;9.23;;;25.80;1.00;;;;;;5037234;28;20524;-43
2023/07/29 12:21:21;;;;;;;9.10;8.60;;;25.90;1.00;;;;;;5038106;28;20642;-44
2023/07/29 12:23:47;;;;;;;10.43;10.03;;;26.00;1.00;;;;;;5038652;28;20320;-47
2023/07/29 12:26:12;;;;;;;9.37;8.97;;;26.10;1.00;;;;;;5039615;28;20424;-42
2023/07/29 12:28:38;;;;;;;9.50;9.10;;;25.90;1.00;;;;;;5039409;28;20182;-43
2023/07/29 12:31:08;;;;;;;9.30;8.90;;;25.90;1.00;;;;;;5010119;28;20201;-41
2023/07/29 12:33:35;;;;;;;8.53;8.20;;;25.40;99.90;;;;;;5039703;28;20552;-45
2023/07/29 12:36:01;;;;;;;9.90;9.50;;;25.20;99.90;;;;;;5039136;28;20436;-43